createdAt,value
2022-11-03T00:02:02.279Z,4.60
2022-11-03T00:04:28.884Z,4.40
2022-11-03T00:06:55.836Z,4.40
2022-11-03T00:09:23.931Z,4.50
2022-11-03T00:11:51.391Z,4.40
2022-11-03T00:14:18.647Z,4.40
2022-11-03T00:16:45.609Z,4.30
2022-11-03T00:19:13.716Z,4.40
2022-11-03T00:21:40.260Z,4.40
2022-11-03T00:24:07.025Z,4.30
2022-11-03T00:26:35.928Z,4.20
2022-11-03T00:29:08.022Z,4.20
2022-11-03T00:31:36.423Z,4.20
2022-11-03T00:34:03.725Z,4.20
2022-11-03T00:36:33.111Z,4.10
2022-11-03T00:38:59.605Z,4.20
2022-11-03T00:41:26.791Z,4.10
2022-11-03T00:43:53.965Z,4.10
2022-11-03T00:46:22.413Z,4.10
2022-11-03T00:48:49.062Z,4.10
2022-11-03T00:51:24.279Z,4.10
2022-11-03T00:53:56.137Z,4.10
2022-11-03T00:56:22.448Z,4.10
2022-11-03T00:58:49.928Z,4.10
2022-11-03T01:01:18.809Z,4.10
2022-11-03T01:04:06.307Z,4.10
2022-11-03T01:06:50.223Z,4.10
2022-11-03T01:09:29.054Z,4.10
2022-11-03T01:12:02.214Z,4.00
2022-11-03T01:14:32.530Z,4.00
2022-11-03T01:16:58.963Z,4.00
2022-11-03T01:19:25.432Z,3.90
2022-11-03T01:21:53.373Z,3.90
2022-11-03T01:24:20.182Z,4.00
2022-11-03T01:26:46.649Z,4.00
2022-11-03T01:29:13.112Z,3.90
2022-11-03T01:31:39.959Z,4.00
2022-11-03T01:34:06.533Z,3.90
2022-11-03T01:36:32.987Z,3.90
2022-11-03T01:38:59.425Z,3.90
2022-11-03T01:41:28.297Z,3.90
2022-11-03T01:44:06.926Z,3.90
2022-11-03T01:46:38.168Z,3.90
2022-11-03T01:49:19.548Z,4.00
2022-11-03T01:51:52.309Z,4.20
2022-11-03T01:54:23.664Z,4.20
2022-11-03T01:56:51.802Z,4.40
2022-11-03T01:59:20.696Z,4.90
2022-11-03T02:01:49.180Z,4.80
2022-11-03T02:04:28.857Z,4.70
2022-11-03T02:09:46.949Z,4.50
2022-11-03T02:12:14.898Z,4.70
2022-11-03T02:14:49.018Z,4.60
2022-11-03T02:17:17.143Z,4.70
2022-11-03T02:19:56.518Z,4.80
2022-11-03T02:22:53.408Z,5.10
2022-11-03T02:25:29.015Z,5.10
2022-11-03T02:27:55.447Z,5.00
2022-11-03T02:30:21.867Z,5.00
2022-11-03T02:32:56.002Z,5.00
2022-11-03T02:35:35.138Z,5.20
2022-11-03T02:38:05.039Z,5.30
2022-11-03T02:40:39.182Z,5.40
2022-11-03T02:43:06.279Z,5.40
2022-11-03T02:45:33.005Z,5.50
2022-11-03T02:48:01.602Z,5.60
2022-11-03T02:50:32.648Z,5.60
2022-11-03T02:52:59.294Z,5.60
2022-11-03T02:55:38.649Z,5.50
2022-11-03T02:58:19.192Z,5.50
2022-11-03T03:00:52.225Z,5.60
2022-11-03T03:03:40.372Z,5.60
2022-11-03T03:06:11.368Z,5.60
2022-11-03T03:08:44.193Z,5.70
2022-11-03T03:11:12.663Z,5.70
2022-11-03T03:13:42.769Z,5.70
2022-11-03T03:16:17.256Z,5.70
2022-11-03T03:19:20.985Z,5.70
2022-11-03T03:21:51.110Z,5.70
2022-11-03T03:24:38.844Z,5.70
2022-11-03T03:27:10.345Z,5.60
2022-11-03T03:29:41.872Z,5.60
2022-11-03T03:32:10.749Z,5.60
2022-11-03T03:34:41.839Z,5.60
2022-11-03T03:37:10.815Z,5.50
2022-11-03T03:39:42.008Z,5.50
2022-11-03T03:42:10.451Z,5.50
2022-11-03T03:44:38.769Z,5.60
2022-11-03T03:47:12.269Z,5.60
2022-11-03T03:49:38.830Z,5.60
2022-11-03T03:52:05.353Z,5.60
2022-11-03T03:54:31.818Z,5.60
2022-11-03T03:57:03.889Z,5.60
2022-11-03T03:59:30.644Z,5.60
2022-11-03T04:01:57.953Z,5.60
2022-11-03T04:04:24.464Z,5.60
2022-11-03T04:07:10.899Z,5.60
2022-11-03T04:09:37.379Z,5.50
2022-11-03T04:12:22.336Z,5.40
2022-11-03T04:15:07.522Z,5.40
2022-11-03T04:17:52.530Z,5.40
2022-11-03T04:20:37.545Z,5.40
2022-11-03T04:23:04.073Z,5.40
2022-11-03T04:25:30.578Z,5.40
2022-11-03T04:27:57.075Z,5.60
2022-11-03T04:30:25.041Z,5.50
2022-11-03T04:32:52.675Z,5.60
2022-11-03T04:35:24.646Z,5.60
2022-11-03T04:37:57.360Z,5.70
2022-11-03T04:40:24.069Z,5.70
2022-11-03T04:42:50.727Z,5.60
2022-11-03T04:45:26.172Z,5.60
2022-11-03T04:47:52.960Z,5.70
2022-11-03T04:50:21.271Z,5.60
2022-11-03T04:52:49.114Z,5.70
2022-11-03T04:55:18.254Z,5.70
2022-11-03T04:57:45.211Z,5.70
2022-11-03T05:00:19.427Z,5.70
2022-11-03T05:02:51.507Z,5.60
2022-11-03T05:05:24.407Z,5.60
2022-11-03T05:07:56.562Z,5.60
2022-11-03T05:10:26.762Z,5.40
2022-11-03T05:12:57.561Z,5.60
2022-11-03T05:15:30.100Z,5.70
2022-11-03T05:17:58.585Z,5.70
2022-11-03T05:20:37.370Z,5.60
2022-11-03T05:23:05.934Z,5.60
2022-11-03T05:25:40.998Z,5.60
2022-11-03T05:28:24.433Z,5.70
2022-11-03T05:30:52.484Z,5.80
2022-11-03T05:33:21.946Z,5.80
2022-11-03T05:35:48.519Z,5.80
2022-11-03T05:38:18.682Z,5.90
2022-11-03T05:40:45.103Z,5.90
2022-11-03T05:43:14.497Z,6.00
2022-11-03T05:45:42.025Z,5.90
2022-11-03T05:48:22.615Z,5.90
2022-11-03T05:50:49.456Z,6.00
2022-11-03T05:53:35.982Z,6.00
2022-11-03T05:56:05.747Z,6.00
2022-11-03T05:58:35.944Z,5.90
2022-11-03T06:01:10.098Z,5.90
2022-11-03T06:03:36.804Z,5.90
2022-11-03T06:06:12.782Z,5.80
2022-11-03T06:08:41.687Z,5.80
2022-11-03T06:11:25.448Z,5.90
2022-11-03T06:13:52.150Z,5.90
2022-11-03T06:16:40.219Z,5.70
2022-11-03T06:19:21.437Z,5.80
2022-11-03T06:21:49.505Z,5.80
2022-11-03T06:24:17.707Z,5.70
2022-11-03T06:26:46.381Z,5.90
2022-11-03T06:29:15.968Z,5.80
2022-11-03T06:31:44.752Z,5.80
2022-11-03T06:34:45.867Z,5.70
2022-11-03T06:37:32.444Z,5.80
2022-11-03T06:40:09.181Z,5.80
2022-11-03T06:42:35.939Z,5.70
2022-11-03T06:45:14.550Z,5.90
2022-11-03T06:47:41.263Z,6.00
2022-11-03T06:50:22.096Z,6.10
2022-11-03T06:55:32.169Z,6.10
2022-11-03T06:58:02.490Z,6.20
2022-11-03T07:00:35.732Z,6.20
2022-11-03T07:03:18.154Z,6.20
2022-11-03T07:05:46.314Z,6.20
2022-11-03T07:08:23.490Z,6.30
2022-11-03T07:10:51.803Z,6.30
2022-11-03T07:13:22.536Z,6.40
2022-11-03T07:15:49.203Z,6.40
2022-11-03T07:18:35.063Z,6.60
2022-11-03T07:21:06.778Z,6.70
2022-11-03T07:23:33.218Z,6.90
2022-11-03T07:26:01.295Z,7.20
2022-11-03T07:28:38.801Z,7.80
2022-11-03T07:31:25.382Z,8.30
2022-11-03T07:33:58.142Z,8.90
2022-11-03T07:36:27.777Z,10.60
2022-11-03T07:38:56.365Z,12.90
2022-11-03T07:41:31.106Z,15.30
2022-11-03T07:44:02.018Z,17.10
2022-11-03T07:46:28.573Z,16.50
2022-11-03T07:49:01.257Z,16.50
2022-11-03T07:51:33.126Z,15.40
2022-11-03T07:54:08.469Z,15.60
2022-11-03T07:56:41.099Z,16.20
2022-11-03T07:59:13.478Z,14.30
2022-11-03T08:01:42.712Z,13.40
2022-11-03T08:04:17.255Z,12.40
2022-11-03T08:06:44.146Z,11.70
2022-11-03T08:09:10.592Z,11.30
2022-11-03T08:11:37.068Z,11.20
2022-11-03T08:14:04.094Z,11.00
2022-11-03T08:16:30.730Z,10.60
2022-11-03T08:18:57.244Z,10.70
2022-11-03T08:21:23.822Z,10.50
2022-11-03T08:23:50.957Z,10.60
2022-11-03T08:26:17.407Z,10.30
2022-11-03T08:28:43.842Z,10.40
2022-11-03T08:31:12.991Z,10.30
2022-11-03T08:33:40.380Z,10.20
2022-11-03T08:36:08.415Z,10.20
2022-11-03T08:38:35.054Z,10.20
2022-11-03T08:41:02.211Z,10.10
2022-11-03T08:43:28.947Z,10.00
2022-11-03T08:45:55.349Z,10.00
2022-11-03T08:48:23.253Z,10.20
2022-11-03T08:50:54.172Z,10.10
2022-11-03T08:53:22.737Z,10.30
2022-11-03T08:55:49.385Z,10.30
2022-11-03T08:58:15.979Z,10.40
2022-11-03T09:00:42.782Z,10.40
2022-11-03T09:03:09.504Z,10.20
2022-11-03T09:05:36.222Z,10.30
2022-11-03T09:10:49.191Z,10.50
2022-11-03T09:13:15.604Z,10.60
2022-11-03T09:15:42.447Z,10.60
2022-11-03T09:18:09.236Z,10.70
2022-11-03T09:20:35.991Z,10.90
2022-11-03T09:23:02.449Z,10.80
2022-11-03T09:25:29.048Z,10.90
2022-11-03T09:27:55.514Z,11.10
2022-11-03T09:30:22.049Z,11.20
2022-11-03T09:32:48.640Z,11.30
2022-11-03T09:35:15.304Z,11.30
2022-11-03T09:37:41.793Z,11.50
2022-11-03T09:40:10.175Z,11.40
2022-11-03T09:42:37.711Z,11.50
2022-11-03T09:45:04.963Z,11.70
2022-11-03T09:47:35.070Z,11.70
2022-11-03T09:50:02.430Z,11.80
2022-11-03T09:52:28.933Z,11.90
2022-11-03T09:54:55.768Z,12.00
2022-11-03T09:57:22.836Z,12.10
2022-11-03T09:59:50.554Z,12.30
2022-11-03T10:02:36.930Z,12.30
2022-11-03T10:05:09.735Z,12.40
2022-11-03T10:07:37.625Z,12.40
2022-11-03T10:10:04.796Z,12.40
2022-11-03T10:12:35.919Z,12.40
2022-11-03T10:15:02.357Z,12.50
2022-11-03T10:17:30.726Z,12.60
2022-11-03T10:19:58.340Z,12.80
2022-11-03T10:22:24.824Z,13.00
2022-11-03T10:25:30.124Z,12.80
2022-11-03T10:28:22.978Z,13.60
2022-11-03T10:31:14.988Z,14.30
2022-11-03T10:33:52.125Z,14.30
2022-11-03T10:36:18.603Z,14.00
2022-11-03T10:38:45.551Z,14.30
2022-11-03T10:41:16.170Z,13.90
2022-11-03T10:44:00.240Z,14.20
2022-11-03T10:49:17.230Z,14.40
2022-11-03T10:51:46.956Z,14.30
2022-11-03T10:54:16.441Z,14.10
2022-11-03T10:56:46.732Z,13.70
2022-11-03T10:59:31.797Z,13.50
2022-11-03T11:02:00.043Z,13.30
2022-11-03T11:04:26.851Z,13.70
2022-11-03T11:06:53.566Z,13.50
2022-11-03T11:09:27.952Z,13.40
2022-11-03T11:12:05.180Z,13.40
2022-11-03T11:14:34.698Z,13.60
2022-11-03T11:17:02.115Z,13.50
2022-11-03T11:19:30.355Z,13.50
2022-11-03T11:21:58.814Z,13.60
2022-11-03T11:24:43.551Z,13.40
2022-11-03T11:27:34.681Z,13.70
2022-11-03T11:30:07.297Z,13.90
2022-11-03T11:32:36.484Z,14.10
2022-11-03T11:35:03.503Z,14.10
2022-11-03T11:37:33.686Z,13.80
2022-11-03T11:40:00.299Z,14.00
2022-11-03T11:44:56.781Z,13.70
2022-11-03T11:47:47.466Z,13.70
2022-11-03T11:50:25.528Z,13.60
2022-11-03T11:53:00.660Z,13.70
2022-11-03T11:55:40.558Z,13.40
2022-11-03T11:58:43.821Z,13.70
2022-11-03T12:01:30.749Z,13.60
2022-11-03T12:04:00.536Z,13.70
2022-11-03T12:06:41.430Z,13.70
2022-11-03T12:09:13.824Z,13.60
2022-11-03T12:11:45.780Z,13.60
2022-11-03T12:14:24.354Z,13.60
2022-11-03T12:16:50.949Z,13.80
2022-11-03T12:19:36.842Z,13.80
2022-11-03T12:22:05.680Z,13.80
2022-11-03T12:24:32.237Z,13.90
2022-11-03T12:26:59.777Z,13.80
2022-11-03T12:29:26.399Z,13.90
2022-11-03T12:31:53.455Z,13.70
2022-11-03T12:34:19.939Z,13.90
2022-11-03T12:36:48.729Z,13.90
2022-11-03T12:39:18.572Z,13.90
2022-11-03T12:41:45.145Z,13.70
2022-11-03T12:44:11.700Z,13.90
2022-11-03T12:46:38.188Z,13.60
2022-11-03T12:49:04.644Z,13.70
2022-11-03T12:51:31.088Z,13.90
2022-11-03T12:53:57.515Z,13.80
2022-11-03T12:56:23.951Z,13.90
2022-11-03T12:58:50.389Z,13.80
2022-11-03T13:01:17.019Z,13.60
2022-11-03T13:03:43.599Z,13.90
2022-11-03T13:06:11.649Z,13.70
2022-11-03T13:08:38.283Z,13.60
2022-11-03T13:11:24.815Z,13.60
2022-11-03T13:13:51.986Z,13.50
2022-11-03T13:16:18.424Z,13.80
2022-11-03T13:18:44.878Z,13.80
2022-11-03T13:21:11.295Z,13.80
2022-11-03T13:23:37.816Z,13.70
2022-11-03T13:26:04.397Z,13.90
2022-11-03T13:28:31.326Z,13.90
2022-11-03T13:30:57.801Z,13.90
2022-11-03T13:33:24.274Z,14.00
2022-11-03T13:35:50.779Z,13.90
2022-11-03T13:38:17.213Z,13.80
2022-11-03T13:40:56.607Z,14.00
2022-11-03T13:43:24.883Z,13.80
2022-11-03T13:45:52.844Z,13.80
2022-11-03T13:49:20.025Z,13.80
2022-11-03T13:51:05.742Z,13.50
2022-11-03T13:56:21.901Z,13.40
2022-11-03T14:01:36.711Z,13.40
2022-11-03T14:06:49.841Z,13.40
2022-11-03T14:09:18.878Z,13.30
2022-11-03T14:12:03.654Z,13.40
2022-11-03T14:14:30.209Z,13.40
2022-11-03T14:16:56.725Z,13.40
2022-11-03T14:19:30.745Z,13.30
2022-11-03T14:22:02.113Z,13.20
2022-11-03T14:24:28.530Z,13.20
2022-11-03T14:26:55.029Z,13.20
2022-11-03T14:29:21.478Z,13.10
2022-11-03T14:31:47.980Z,13.20
2022-11-03T14:34:14.440Z,13.10
2022-11-03T14:36:40.957Z,13.20
2022-11-03T14:39:07.443Z,13.10
2022-11-03T14:41:56.748Z,13.30
2022-11-03T14:44:23.191Z,13.00
2022-11-03T14:46:49.635Z,12.90
2022-11-03T14:49:16.260Z,12.80
2022-11-03T14:51:43.005Z,12.80
2022-11-03T14:54:09.516Z,12.70
2022-11-03T14:56:35.958Z,12.70
2022-11-03T14:59:02.379Z,12.60
2022-11-03T15:01:29.004Z,12.60
2022-11-03T15:03:55.553Z,12.50
2022-11-03T15:06:21.995Z,12.50
2022-11-03T15:08:53.482Z,12.40
2022-11-03T15:11:22.518Z,12.40
2022-11-03T15:13:52.284Z,12.40
2022-11-03T15:16:19.192Z,12.30
2022-11-03T15:18:45.619Z,12.20
2022-11-03T15:21:12.065Z,12.10
2022-11-03T15:26:25.062Z,12.00
2022-11-03T15:28:51.535Z,12.10
2022-11-03T15:31:18.189Z,12.00
2022-11-03T15:33:44.584Z,11.90
2022-11-03T15:36:11.894Z,11.80
2022-11-03T15:38:38.339Z,11.80
2022-11-03T15:41:16.917Z,11.60
2022-11-03T15:43:44.811Z,11.50
2022-11-03T15:46:12.087Z,11.60
2022-11-03T15:48:38.653Z,11.60
2022-11-03T15:51:05.719Z,11.50
2022-11-03T15:53:32.320Z,11.50
2022-11-03T15:55:58.944Z,11.40
2022-11-03T15:58:25.414Z,11.50
2022-11-03T16:00:51.924Z,11.40
2022-11-03T16:03:18.452Z,11.40
2022-11-03T16:05:44.932Z,11.30
2022-11-03T16:08:11.529Z,11.40
2022-11-03T16:10:38.232Z,11.40
2022-11-03T16:13:04.792Z,11.30
2022-11-03T16:15:31.236Z,11.30
2022-11-03T16:18:02.662Z,11.30
2022-11-03T16:20:29.894Z,11.30
2022-11-03T16:22:56.320Z,11.30
2022-11-03T16:25:22.892Z,11.30
2022-11-03T16:27:49.376Z,11.30
2022-11-03T16:30:15.852Z,11.40
2022-11-03T16:32:42.345Z,11.40
2022-11-03T16:35:09.814Z,11.30
2022-11-03T16:37:36.380Z,11.30
2022-11-03T16:40:03.222Z,11.30
2022-11-03T16:42:29.712Z,11.30
2022-11-03T16:44:56.156Z,11.30
2022-11-03T16:47:27.014Z,11.30
2022-11-03T16:49:55.940Z,11.30
2022-11-03T16:52:22.387Z,11.30
2022-11-03T16:54:48.896Z,11.20
2022-11-03T16:57:15.723Z,11.30
2022-11-03T16:59:42.340Z,11.30
2022-11-03T17:02:15.045Z,11.30
2022-11-03T17:04:43.715Z,11.30
2022-11-03T17:07:11.368Z,11.20
2022-11-03T17:09:38.214Z,11.30
2022-11-03T17:12:07.608Z,11.20
2022-11-03T17:14:34.017Z,11.30
2022-11-03T17:17:00.485Z,11.30
2022-11-03T17:19:27.698Z,11.30
2022-11-03T17:21:57.863Z,11.30
2022-11-03T17:24:24.775Z,11.40
2022-11-03T17:26:59.354Z,11.40
2022-11-03T17:29:34.831Z,11.30
2022-11-03T17:32:04.176Z,11.40
2022-11-03T17:34:31.231Z,11.40
2022-11-03T17:36:58.094Z,11.40
2022-11-03T17:39:29.316Z,11.40
2022-11-03T17:42:10.907Z,11.40
2022-11-03T17:44:37.463Z,11.40
2022-11-03T17:47:03.942Z,11.40
2022-11-03T17:49:31.550Z,11.40
2022-11-03T17:51:59.076Z,11.40
2022-11-03T17:54:29.257Z,11.40
2022-11-03T17:56:58.404Z,11.40
2022-11-03T17:59:24.961Z,11.40
2022-11-03T18:01:52.213Z,11.40
2022-11-03T18:04:18.894Z,11.40
2022-11-03T18:06:45.885Z,11.40
2022-11-03T18:09:13.368Z,11.40
2022-11-03T18:12:00.560Z,11.40
2022-11-03T18:14:29.354Z,11.40
2022-11-03T18:36:38.455Z,11.10
2022-11-03T18:39:05.289Z,11.00
2022-11-03T18:41:40.645Z,11.10
2022-11-03T18:44:17.550Z,11.10
2022-11-03T18:46:44.300Z,11.10
2022-11-03T18:49:10.948Z,11.10
2022-11-03T18:51:38.203Z,11.00
2022-11-03T18:54:06.248Z,11.10
2022-11-03T18:56:35.838Z,11.00
2022-11-03T18:59:21.587Z,11.00
2022-11-03T19:01:48.319Z,11.00
2022-11-03T19:04:15.188Z,11.00
2022-11-03T19:06:45.883Z,11.00
2022-11-03T19:09:17.065Z,11.00
2022-11-03T19:11:44.539Z,10.90
2022-11-03T19:14:22.309Z,11.00
2022-11-03T19:17:17.115Z,11.00
2022-11-03T19:22:12.625Z,11.00
2022-11-03T19:24:40.591Z,11.00
2022-11-03T19:27:18.123Z,10.90
2022-11-03T19:29:45.756Z,11.00
2022-11-03T19:32:21.041Z,10.90
2022-11-03T19:34:54.358Z,10.90
2022-11-03T19:37:20.932Z,10.90
2022-11-03T19:39:48.601Z,10.90
2022-11-03T19:42:28.152Z,10.80
2022-11-03T19:45:01.404Z,10.80
2022-11-03T19:48:10.609Z,10.80
2022-11-03T19:50:37.431Z,10.80
2022-11-03T19:53:07.273Z,10.70
2022-11-03T19:55:37.371Z,10.70
2022-11-03T19:58:26.008Z,10.70
2022-11-03T20:00:55.542Z,10.60
2022-11-03T20:03:22.969Z,10.60
2022-11-03T20:05:53.348Z,10.60
2022-11-03T20:08:23.049Z,10.50
2022-11-03T20:10:50.726Z,10.40
2022-11-03T20:13:21.794Z,10.40
2022-11-03T20:15:49.016Z,10.30
2022-11-03T20:18:16.138Z,10.30
2022-11-03T20:20:45.770Z,10.20
2022-11-03T20:23:39.942Z,10.20
2022-11-03T20:26:16.853Z,10.20
2022-11-03T20:28:49.718Z,10.30
2022-11-03T20:31:18.605Z,10.20
2022-11-03T20:33:45.115Z,10.20
2022-11-03T20:36:18.616Z,10.20
2022-11-03T20:39:00.103Z,10.10
2022-11-03T20:41:31.294Z,10.20
2022-11-03T20:44:02.078Z,10.10
2022-11-03T20:46:34.628Z,10.00
2022-11-03T20:49:01.419Z,9.90
2022-11-03T20:51:35.432Z,9.80
2022-11-03T20:54:03.591Z,9.80
2022-11-03T20:56:31.362Z,9.70
2022-11-03T20:59:09.040Z,9.60
2022-11-03T21:01:36.489Z,9.60
2022-11-03T21:04:04.322Z,9.50
2022-11-03T21:06:34.722Z,9.50
2022-11-03T21:09:03.965Z,9.40
2022-11-03T21:11:36.776Z,9.30
2022-11-03T21:14:29.600Z,9.30
2022-11-03T21:17:15.556Z,9.30
2022-11-03T21:20:02.666Z,9.20
2022-11-03T21:22:51.913Z,9.10
2022-11-03T21:25:21.661Z,9.10
2022-11-03T21:27:53.830Z,9.10
2022-11-03T21:30:25.027Z,9.00
2022-11-03T21:32:51.659Z,9.10
2022-11-03T21:35:21.111Z,8.90
2022-11-03T21:37:47.963Z,8.70
2022-11-03T21:40:14.504Z,8.60
2022-11-03T21:42:59.916Z,8.60
2022-11-03T21:45:26.365Z,8.60
2022-11-03T21:48:14.097Z,8.50
2022-11-03T21:50:41.591Z,8.50
2022-11-03T21:53:08.444Z,8.50
2022-11-03T21:55:35.504Z,8.40
2022-11-03T21:58:02.426Z,8.40
2022-11-03T22:00:28.902Z,8.40
2022-11-03T22:02:56.140Z,8.30
2022-11-03T22:05:22.761Z,8.30
2022-11-03T22:07:49.202Z,8.50
2022-11-03T22:10:15.758Z,8.40
2022-11-03T22:12:42.248Z,8.50
2022-11-03T22:15:27.791Z,8.50
2022-11-03T22:18:00.654Z,8.60
2022-11-03T22:20:45.826Z,8.70
2022-11-03T22:23:32.792Z,8.60
2022-11-03T22:26:19.070Z,8.70
2022-11-03T22:28:45.528Z,8.70
2022-11-03T22:31:30.474Z,8.70
2022-11-03T22:34:15.372Z,8.60
2022-11-03T22:36:41.825Z,8.70
2022-11-03T22:39:26.841Z,8.70
2022-11-03T22:42:11.639Z,8.80
2022-11-03T22:44:56.611Z,8.80
2022-11-03T22:47:23.039Z,8.70
2022-11-03T22:49:49.454Z,8.70
2022-11-03T22:52:15.977Z,8.80
2022-11-03T22:54:42.455Z,8.70
2022-11-03T22:57:11.353Z,8.80
2022-11-03T22:59:37.790Z,8.80
2022-11-03T23:02:04.476Z,8.80
2022-11-03T23:04:31.054Z,8.70
2022-11-03T23:06:57.497Z,8.70
2022-11-03T23:09:23.896Z,8.70
2022-11-03T23:11:50.370Z,8.70
2022-11-03T23:14:16.820Z,8.70
2022-11-03T23:16:44.715Z,8.70
2022-11-03T23:19:31.282Z,8.70
2022-11-03T23:21:58.289Z,8.60
2022-11-03T23:24:45.360Z,8.50
2022-11-03T23:27:12.982Z,8.50
2022-11-03T23:29:39.418Z,8.30
2022-11-03T23:32:06.278Z,8.30
2022-11-03T23:34:34.895Z,8.30
2022-11-03T23:37:01.721Z,8.20
2022-11-03T23:39:28.142Z,8.20
2022-11-03T23:41:54.585Z,8.00
2022-11-03T23:44:21.034Z,8.20
2022-11-03T23:47:06.010Z,8.10
2022-11-03T23:49:32.494Z,8.10
2022-11-03T23:51:58.959Z,8.20
2022-11-03T23:54:27.070Z,8.20
2022-11-03T23:57:12.095Z,8.20
2022-11-03T23:59:38.573Z,8.30
